Terminal Aerodrome Forecast
Issued by NWS Dallas/Fort Worth, TX

Home | Current Version | Previous Version | Text Only | Print | Product List | Glossary On
Versions: 1 2 3 4 5 6 7 8 9 10 11 12 13 14 15 16 17 18 19 20 21 22 23 24 25
000
FTUS44 KFWD 290524
TAFDFW
TAF
KDFW 290524Z 2906/3012 15011KT P6SM SKC
     FM291500 19017G28KT P6SM SKC
     FM300000 15008KT P6SM BKN300
     FM301000 13007KT P6SM BKN015=

USA.gov is the U.S. government's official web portal to all federal, state and local government web resources and services.